Mystic, South Dakota
Current Conditions -  °F | °C
As of 10:53 AM on Thursday 29 Jan 2015 (Local Time) from KCUT Reporting Station
Clear Clear  
Wind Chill: 36°   Ceiling: Unl
Heat Index: 39°   Visibility: 10mi
Dew Point: -14°   Wind: 5mph
Humidity: 10%   Direction: 270°W
Pressure: 30.41"   Gusts: NA
Location:  43.9317°N, 103.745°W
Report Text: KCUT 291753Z AUTO 27004KT 10SM CLR 04/M26 A3041 RMK AO2 SLP320 T00391256 10039 21039 50007
Loading
Personal Weather Stations






























Interactive Weather Map New forecast layout! Learn more

10-Day Weather Forecast

Advertisements
Track Severe Weather on mobile